createdAt,value
2019-04-01T00:01:45.453Z,5.30
2019-04-01T00:04:16.655Z,6.10
2019-04-01T00:06:47.879Z,6.20
2019-04-01T00:09:18.928Z,6.67
2019-04-01T00:11:50.519Z,6.33
2019-04-01T00:14:22.593Z,6.17
2019-04-01T00:16:53.662Z,5.90
2019-04-01T00:19:24.768Z,6.10
2019-04-01T00:21:55.890Z,5.97
2019-04-01T00:24:27.468Z,6.27
2019-04-01T00:26:58.960Z,7.07
2019-04-01T00:29:31.280Z,5.63
2019-04-01T00:32:02.913Z,6.00
2019-04-01T00:34:34.017Z,6.03
2019-04-01T00:37:05.228Z,5.60
2019-04-01T00:39:37.053Z,6.13
2019-04-01T00:42:23.466Z,5.97
2019-04-01T00:44:55.429Z,6.50
2019-04-01T00:47:30.807Z,6.40
2019-04-01T00:50:05.299Z,6.20
2019-04-01T00:52:36.358Z,6.30
2019-04-01T00:55:07.961Z,6.30
2019-04-01T00:57:39.572Z,6.17
2019-04-01T01:00:11.355Z,5.47
2019-04-01T01:02:42.802Z,5.63
2019-04-01T01:05:15.783Z,6.40
2019-04-01T01:07:47.039Z,5.50
2019-04-01T01:10:18.462Z,5.57
2019-04-01T01:12:49.628Z,5.87
2019-04-01T01:15:23.463Z,6.53
2019-04-01T01:17:55.171Z,5.90
2019-04-01T01:20:26.974Z,6.20
2019-04-01T01:22:59.331Z,5.97
2019-04-01T01:25:34.465Z,6.40
2019-04-01T01:28:05.792Z,5.67
2019-04-01T01:30:37.083Z,6.10
2019-04-01T01:33:08.617Z,5.77
2019-04-01T01:35:40.120Z,5.47
2019-04-01T01:38:13.108Z,5.00
2019-04-01T01:40:44.110Z,5.93
2019-04-01T01:43:15.334Z,5.47
2019-04-01T01:45:46.525Z,5.47
2019-04-01T01:48:17.820Z,5.30
2019-04-01T01:50:51.738Z,4.53
2019-04-01T01:53:22.956Z,4.67
2019-04-01T01:55:54.834Z,4.83
2019-04-01T01:58:26.387Z,5.20
2019-04-01T02:00:58.596Z,5.13
2019-04-01T02:03:29.878Z,5.07
2019-04-01T02:06:01.317Z,5.30
2019-04-01T02:08:32.740Z,4.70
2019-04-01T02:11:04.719Z,4.90
2019-04-01T02:13:35.917Z,4.67
2019-04-01T02:16:07.683Z,4.37
2019-04-01T02:18:52.021Z,5.23
2019-04-01T02:21:23.894Z,4.97
2019-04-01T02:23:54.956Z,4.87
2019-04-01T02:26:29.098Z,4.40
2019-04-01T02:29:00.418Z,4.60
2019-04-01T02:31:32.203Z,5.57
2019-04-01T02:34:03.626Z,5.13
2019-04-01T02:36:35.824Z,5.27
2019-04-01T02:39:09.622Z,4.93
2019-04-01T02:41:40.832Z,4.63
2019-04-01T02:44:11.976Z,4.80
2019-04-01T02:46:43.679Z,4.57
2019-04-01T02:49:14.702Z,4.50
2019-04-01T02:51:46.533Z,4.50
2019-04-01T02:54:17.704Z,5.13
2019-04-01T02:56:49.361Z,5.30
2019-04-01T02:59:20.597Z,4.47
2019-04-01T03:01:52.042Z,4.43
2019-04-01T03:04:25.051Z,5.67
2019-04-01T03:06:57.654Z,4.60
2019-04-01T03:09:28.683Z,4.90
2019-04-01T03:11:59.729Z,4.77
2019-04-01T03:14:30.764Z,4.33
2019-04-01T03:17:01.871Z,4.27
2019-04-01T03:19:33.131Z,4.80
2019-04-01T03:22:04.387Z,5.37
2019-04-01T03:24:35.637Z,4.50
2019-04-01T03:27:06.940Z,4.93
2019-04-01T03:29:38.678Z,5.30
2019-04-01T03:32:09.798Z,4.83
2019-04-01T03:34:40.972Z,5.07
2019-04-01T03:37:12.241Z,5.00
2019-04-01T03:39:43.295Z,4.73
2019-04-01T03:42:14.943Z,4.60
2019-04-01T03:44:46.142Z,4.97
2019-04-01T03:47:17.198Z,5.13
2019-04-01T03:49:48.820Z,5.43
2019-04-01T03:52:20.044Z,5.13
2019-04-01T03:54:51.638Z,4.90
2019-04-01T03:57:22.813Z,5.57
2019-04-01T03:59:53.902Z,5.03
2019-04-01T04:02:24.747Z,5.47
2019-04-01T04:04:55.895Z,4.57
2019-04-01T04:07:27.248Z,5.27
2019-04-01T04:09:58.971Z,5.43
2019-04-01T04:12:29.954Z,5.30
2019-04-01T04:15:00.926Z,5.70
2019-04-01T04:17:32.522Z,4.63
2019-04-01T04:20:03.796Z,4.60
2019-04-01T04:22:35.246Z,5.77
2019-04-01T04:25:10.371Z,4.70
2019-04-01T04:27:41.479Z,4.17
2019-04-01T04:30:13.147Z,5.30
2019-04-01T04:32:46.982Z,5.37
2019-04-01T04:35:18.632Z,4.83
2019-04-01T04:37:49.997Z,5.37
2019-04-01T04:40:21.644Z,5.63
2019-04-01T04:42:52.787Z,5.60
2019-04-01T04:45:23.946Z,4.83
2019-04-01T04:47:55.864Z,5.27
2019-04-01T04:50:33.498Z,6.40
2019-04-01T04:53:09.874Z,6.43
2019-04-01T04:55:40.847Z,4.93
2019-04-01T04:58:12.043Z,5.17
2019-04-01T05:00:43.050Z,5.33
2019-04-01T05:03:15.022Z,4.83
2019-04-01T05:05:46.259Z,5.20
2019-04-01T05:08:17.681Z,5.33
2019-04-01T05:10:48.867Z,4.93
2019-04-01T05:13:24.778Z,4.80
2019-04-01T05:15:55.936Z,5.10
2019-04-01T05:18:28.450Z,6.50
2019-04-01T05:21:00.681Z,5.50
2019-04-01T05:23:32.281Z,5.37
2019-04-01T05:26:04.968Z,5.57
2019-04-01T05:28:38.505Z,5.63
2019-04-01T05:31:14.664Z,5.97
2019-04-01T05:33:55.227Z,5.70
2019-04-01T05:36:23.219Z,5.10
2019-04-01T05:38:54.336Z,5.83
2019-04-01T05:41:27.213Z,5.83
2019-04-01T05:44:02.373Z,5.20
2019-04-01T05:46:34.175Z,5.63
2019-04-01T05:49:08.022Z,6.17
2019-04-01T05:51:41.141Z,5.10
2019-04-01T05:54:13.181Z,5.83
2019-04-01T05:56:46.599Z,5.80
2019-04-01T05:59:19.251Z,5.30
2019-04-01T06:01:52.857Z,5.67
2019-04-01T06:04:24.042Z,6.27
2019-04-01T06:06:55.851Z,5.13
2019-04-01T06:09:27.925Z,5.73
2019-04-01T06:11:59.070Z,6.43
2019-04-01T06:14:31.475Z,5.53
2019-04-01T06:17:02.788Z,6.30
2019-04-01T06:19:43.196Z,7.60
2019-04-01T06:22:14.444Z,5.93
2019-04-01T06:24:45.727Z,6.87
2019-04-01T06:27:24.480Z,7.27
2019-04-01T06:29:59.242Z,6.40
2019-04-01T06:32:29.871Z,6.50
2019-04-01T06:35:01.258Z,6.03
2019-04-01T06:37:33.406Z,6.30
2019-04-01T06:40:04.995Z,6.60
2019-04-01T06:42:36.206Z,5.50
2019-04-01T06:45:07.693Z,6.53
2019-04-01T06:47:48.978Z,5.40
2019-04-01T06:50:27.986Z,5.70
2019-04-01T06:53:02.250Z,6.20
2019-04-01T06:55:36.853Z,6.47
2019-04-01T06:58:12.096Z,6.57
2019-04-01T07:00:45.017Z,6.07
2019-04-01T07:03:18.763Z,6.37
2019-04-01T07:05:52.474Z,5.23
2019-04-01T07:08:26.892Z,6.37
2019-04-01T07:11:00.228Z,6.90
2019-04-01T07:13:31.667Z,6.17
2019-04-01T07:16:14.875Z,5.93
2019-04-01T07:18:38.144Z,7.27
2019-04-01T07:21:11.286Z,5.70
2019-04-01T07:23:49.689Z,5.47
2019-04-01T07:26:21.074Z,5.90
2019-04-01T07:28:52.136Z,5.27
2019-04-01T07:31:28.053Z,5.17
2019-04-01T07:33:59.365Z,5.60
2019-04-01T07:36:39.707Z,6.80
2019-04-01T07:39:12.556Z,5.90
2019-04-01T07:41:47.514Z,5.70
2019-04-01T07:44:27.813Z,5.97
2019-04-01T07:47:07.966Z,5.57
2019-04-01T07:49:39.356Z,6.03
2019-04-01T07:52:19.616Z,5.73
2019-04-01T07:54:51.646Z,6.37
2019-04-01T07:57:26.808Z,5.87
2019-04-01T07:59:58.696Z,5.47
2019-04-01T08:02:31.577Z,6.10
2019-04-01T08:05:05.901Z,6.30
2019-04-01T08:07:38.688Z,6.83
2019-04-01T08:10:17.730Z,5.77
2019-04-01T08:12:46.382Z,5.93
2019-04-01T08:15:25.262Z,5.63
2019-04-01T08:17:59.694Z,6.53
2019-04-01T08:20:33.260Z,6.33
2019-04-01T08:23:04.815Z,6.57
2019-04-01T08:25:36.692Z,6.90
2019-04-01T08:28:14.481Z,7.67
2019-04-01T08:30:56.926Z,5.83
2019-04-01T08:33:28.066Z,6.37
2019-04-01T08:35:59.705Z,6.90
2019-04-01T08:38:31.322Z,6.57
2019-04-01T08:41:04.846Z,6.20
2019-04-01T08:43:36.001Z,7.00
2019-04-01T08:46:10.868Z,6.30
2019-04-01T08:48:42.481Z,6.03
2019-04-01T08:51:15.604Z,6.33
2019-04-01T08:53:47.062Z,6.83
2019-04-01T08:56:21.875Z,6.37
2019-04-01T08:58:55.513Z,6.33
2019-04-01T09:01:35.371Z,6.60
2019-04-01T09:04:07.789Z,5.67
2019-04-01T09:06:38.919Z,6.30
2019-04-01T09:09:15.533Z,6.63
2019-04-01T09:11:46.814Z,6.70
2019-04-01T09:14:21.588Z,7.10
2019-04-01T09:16:57.128Z,7.03
2019-04-01T09:19:28.602Z,7.17
2019-04-01T09:21:59.983Z,6.73
2019-04-01T09:24:35.470Z,7.03
2019-04-01T09:27:11.438Z,7.77
2019-04-01T09:29:42.687Z,8.20
2019-04-01T09:32:25.193Z,6.93
2019-04-01T09:34:58.201Z,7.77
2019-04-01T09:37:35.395Z,7.40
2019-04-01T09:40:07.294Z,6.90
2019-04-01T09:43:01.272Z,7.40
2019-04-01T09:45:34.390Z,7.03
2019-04-01T09:48:09.807Z,7.40
2019-04-01T09:50:44.263Z,6.83
2019-04-01T09:53:17.112Z,7.40
2019-04-01T09:55:53.295Z,7.30
2019-04-01T09:58:24.778Z,7.73
2019-04-01T10:01:01.721Z,7.73
2019-04-01T10:03:34.775Z,8.00
2019-04-01T10:06:16.461Z,7.30
2019-04-01T10:08:47.876Z,7.80
2019-04-01T10:11:24.037Z,7.60
2019-04-01T10:13:55.060Z,7.77
2019-04-01T10:16:30.274Z,7.27
2019-04-01T10:19:11.038Z,7.57
2019-04-01T10:21:52.074Z,7.17
2019-04-01T10:24:32.961Z,7.83
2019-04-01T10:27:05.555Z,8.37
2019-04-01T10:29:47.266Z,7.20
2019-04-01T10:32:24.931Z,7.70
2019-04-01T10:35:00.404Z,7.63
2019-04-01T10:37:45.892Z,7.97
2019-04-01T10:40:19.298Z,7.93
2019-04-01T10:43:00.045Z,7.87
2019-04-01T10:45:35.001Z,7.97
2019-04-01T10:48:09.346Z,7.90
2019-04-01T10:50:42.517Z,8.20
2019-04-01T10:53:17.026Z,7.87
2019-04-01T10:55:57.681Z,9.00
2019-04-01T10:58:33.114Z,8.33
2019-04-01T11:01:29.547Z,8.40
2019-04-01T11:04:02.560Z,8.10
2019-04-01T11:06:37.350Z,8.13
2019-04-01T11:09:17.568Z,9.10
2019-04-01T11:11:53.862Z,7.90
2019-04-01T11:14:27.471Z,8.10
2019-04-01T11:16:59.860Z,8.07
2019-04-01T11:19:34.478Z,9.83
2019-04-01T11:22:13.391Z,9.47
2019-04-01T11:24:48.415Z,9.73
2019-04-01T11:27:23.728Z,10.17
2019-04-01T11:29:59.611Z,10.30
2019-04-01T11:33:12.254Z,10.00
2019-04-01T11:36:11.524Z,9.30
2019-04-01T11:41:40.614Z,9.90
2019-04-01T11:44:23.021Z,11.07
2019-04-01T11:47:05.548Z,10.27
2019-04-01T11:49:46.904Z,10.03
2019-04-01T11:52:21.594Z,9.87
2019-04-01T11:55:12.287Z,10.67
2019-04-01T11:57:47.382Z,11.13
2019-04-01T12:00:26.114Z,10.90
2019-04-01T12:02:58.505Z,10.43
2019-04-01T12:05:37.762Z,10.30
2019-04-01T12:08:11.528Z,10.70
2019-04-01T12:10:51.222Z,10.43
2019-04-01T12:13:28.936Z,10.83
2019-04-01T12:16:03.735Z,11.27
2019-04-01T12:18:42.408Z,11.63
2019-04-01T12:21:19.386Z,11.03
2019-04-01T12:24:02.654Z,10.30
2019-04-01T12:26:36.960Z,11.63
2019-04-01T12:29:21.392Z,12.10
2019-04-01T12:31:59.616Z,11.07
2019-04-01T12:34:32.834Z,12.07
2019-04-01T12:37:05.072Z,12.10
2019-04-01T12:39:41.495Z,12.10
2019-04-01T12:42:34.210Z,11.40
2019-04-01T12:45:10.429Z,12.47
2019-04-01T12:47:44.921Z,11.53
2019-04-01T12:50:22.680Z,12.23
2019-04-01T12:52:57.197Z,11.93
2019-04-01T12:55:29.504Z,11.23
2019-04-01T12:58:06.831Z,11.70
2019-04-01T13:00:51.670Z,11.03
2019-04-01T13:03:32.308Z,11.93
2019-04-01T13:06:12.704Z,11.07
2019-04-01T13:08:47.947Z,11.23
2019-04-01T13:11:29.437Z,11.80
2019-04-01T13:14:24.779Z,11.77
2019-04-01T13:17:00.355Z,11.13
2019-04-01T13:19:38.914Z,10.60
2019-04-01T13:22:13.793Z,10.10
2019-04-01T13:24:49.888Z,10.23
2019-04-01T13:27:25.440Z,10.93
2019-04-01T13:30:11.991Z,11.23
2019-04-01T13:32:55.602Z,12.77
2019-04-01T13:35:58.617Z,9.50
2019-04-01T13:38:35.751Z,10.10
2019-04-01T13:41:13.286Z,8.73
2019-04-01T13:43:53.526Z,9.73
2019-04-01T13:46:27.961Z,9.63
2019-04-01T13:49:04.223Z,10.87
2019-04-01T13:51:36.931Z,11.03
2019-04-01T13:54:11.464Z,11.03
2019-04-01T13:56:51.947Z,11.33
2019-04-01T13:59:23.055Z,9.60
2019-04-01T14:01:57.074Z,10.77
2019-04-01T14:04:39.742Z,8.83
2019-04-01T14:07:21.278Z,9.77
2019-04-01T14:09:58.566Z,8.83
2019-04-01T14:12:30.490Z,9.50
2019-04-01T14:15:08.019Z,9.13
2019-04-01T14:17:40.684Z,8.53
2019-04-01T14:20:27.812Z,8.63
2019-04-01T14:22:59.619Z,9.37
2019-04-01T14:25:45.572Z,9.70
2019-04-01T14:28:30.759Z,8.57
2019-04-01T14:31:10.299Z,8.13
2019-04-01T14:33:43.103Z,7.83
2019-04-01T14:36:14.740Z,8.53
2019-04-01T14:38:49.261Z,8.30
2019-04-01T14:41:39.136Z,8.90
2019-04-01T14:44:16.645Z,9.63
2019-04-01T14:46:52.376Z,9.33
2019-04-01T14:49:28.476Z,8.87
2019-04-01T14:52:15.457Z,9.37
2019-04-01T14:54:49.337Z,9.53
2019-04-01T14:57:23.432Z,9.20
2019-04-01T14:59:56.210Z,8.47
2019-04-01T15:02:27.754Z,8.77
2019-04-01T15:05:11.355Z,9.73
2019-04-01T15:07:43.046Z,9.97
2019-04-01T15:10:17.228Z,9.70
2019-04-01T15:13:04.992Z,8.47
2019-04-01T15:15:38.871Z,7.77
2019-04-01T15:18:11.234Z,7.70
2019-04-01T15:20:45.265Z,7.73
2019-04-01T15:23:27.465Z,6.90
2019-04-01T15:26:03.745Z,8.43
2019-04-01T15:28:36.837Z,8.30
2019-04-01T15:31:10.067Z,7.80
2019-04-01T15:34:03.970Z,8.30
2019-04-01T15:36:38.715Z,8.43
2019-04-01T15:39:21.117Z,9.30
2019-04-01T15:42:14.377Z,8.87
2019-04-01T15:44:50.817Z,8.47
2019-04-01T15:47:30.999Z,10.10
2019-04-01T15:50:09.522Z,8.57
2019-04-01T15:52:47.273Z,8.83
2019-04-01T15:55:26.567Z,9.43
2019-04-01T15:57:59.311Z,8.70
2019-04-01T16:00:38.752Z,9.30
2019-04-01T16:03:20.375Z,10.77
2019-04-01T16:05:56.435Z,12.43
2019-04-01T16:08:29.178Z,12.40
2019-04-01T16:11:07.754Z,13.30
2019-04-01T16:13:40.847Z,12.20
2019-04-01T16:16:15.343Z,13.10
2019-04-01T16:19:00.051Z,11.60
2019-04-01T16:21:46.333Z,11.40
2019-04-01T16:24:22.676Z,11.00
2019-04-01T16:26:58.734Z,10.80
2019-04-01T16:29:35.521Z,12.00
2019-04-01T16:32:10.020Z,10.50
2019-04-01T16:34:42.293Z,10.10
2019-04-01T16:37:15.656Z,10.43
2019-04-01T16:39:49.413Z,10.93
2019-04-01T16:42:28.034Z,10.80
2019-04-01T16:45:02.166Z,10.03
2019-04-01T16:47:33.600Z,10.77
2019-04-01T16:50:14.306Z,10.43
2019-04-01T16:52:50.822Z,10.63
2019-04-01T16:55:27.184Z,10.33
2019-04-01T16:58:03.594Z,11.30
2019-04-01T17:00:44.310Z,10.57
2019-04-01T17:03:21.551Z,9.63
2019-04-01T17:05:56.705Z,10.27
2019-04-01T17:08:29.792Z,9.93
2019-04-01T17:11:10.137Z,9.97
2019-04-01T17:13:59.304Z,10.33
2019-04-01T17:16:41.409Z,12.53
2019-04-01T17:19:20.423Z,9.73
2019-04-01T17:22:03.994Z,9.67
2019-04-01T17:24:40.751Z,10.50
2019-04-01T17:27:15.747Z,11.03
2019-04-01T17:29:50.512Z,13.10
2019-04-01T17:32:33.030Z,12.27
2019-04-01T17:35:06.873Z,11.27
2019-04-01T17:37:43.297Z,11.10
2019-04-01T17:40:36.453Z,11.47
2019-04-01T17:43:13.558Z,11.00
2019-04-01T17:45:52.932Z,10.47
2019-04-01T17:48:30.898Z,9.70
2019-04-01T17:51:09.930Z,9.73
2019-04-01T17:53:43.663Z,10.00
2019-04-01T17:56:18.157Z,9.30
2019-04-01T17:58:55.821Z,8.17
2019-04-01T18:01:35.785Z,8.63
2019-04-01T18:04:08.152Z,8.23
2019-04-01T18:06:48.032Z,8.33
2019-04-01T18:09:22.238Z,7.80
2019-04-01T18:12:06.375Z,8.47
2019-04-01T18:14:54.170Z,7.60
2019-04-01T18:17:46.194Z,8.93
2019-04-01T18:20:36.904Z,6.20
2019-04-01T18:23:11.162Z,7.00
2019-04-01T18:25:55.785Z,6.70
2019-04-01T18:28:41.212Z,7.27
2019-04-01T18:31:27.370Z,6.93
2019-04-01T18:34:06.712Z,6.67
2019-04-01T18:37:01.207Z,6.30
2019-04-01T18:39:47.411Z,7.07
2019-04-01T18:42:15.877Z,7.17
2019-04-01T18:44:51.616Z,6.53
2019-04-01T18:47:38.779Z,7.63
2019-04-01T18:50:22.749Z,8.67
2019-04-01T18:53:01.179Z,9.43
2019-04-01T18:55:52.857Z,9.73
2019-04-01T18:58:47.545Z,9.37
2019-04-01T19:01:39.278Z,8.60
2019-04-01T19:04:12.547Z,7.90
2019-04-01T19:06:49.661Z,9.13
2019-04-01T19:09:23.879Z,8.90
2019-04-01T19:12:04.624Z,10.53
2019-04-01T19:14:40.499Z,10.10
2019-04-01T19:17:16.985Z,9.77
2019-04-01T19:19:49.745Z,11.03
2019-04-01T19:22:25.509Z,10.37
2019-04-01T19:25:02.311Z,10.93
2019-04-01T19:27:39.176Z,10.23
2019-04-01T19:30:21.026Z,10.10
2019-04-01T19:33:03.138Z,11.50
2019-04-01T19:35:41.244Z,10.20
2019-04-01T19:38:21.403Z,10.40
2019-04-01T19:40:53.527Z,12.73
2019-04-01T19:43:29.829Z,11.43
2019-04-01T19:46:07.177Z,12.43
2019-04-01T19:48:40.814Z,9.70
2019-04-01T19:51:22.000Z,9.47
2019-04-01T19:53:56.996Z,8.77
2019-04-01T19:56:34.432Z,7.40
2019-04-01T19:59:11.271Z,6.80
2019-04-01T20:01:44.979Z,7.57
2019-04-01T20:04:20.041Z,8.23
2019-04-01T20:06:59.176Z,9.87
2019-04-01T20:09:41.086Z,9.43
2019-04-01T20:12:16.289Z,7.33
2019-04-01T20:14:58.738Z,6.40
2019-04-01T20:17:32.952Z,6.70
2019-04-01T20:20:14.283Z,7.07
2019-04-01T20:22:48.655Z,6.77
2019-04-01T20:25:36.441Z,7.53
2019-04-01T20:28:13.809Z,6.93
2019-04-01T20:30:46.943Z,7.07
2019-04-01T20:33:42.724Z,6.90
2019-04-01T20:36:36.150Z,7.10
2019-04-01T20:39:14.533Z,7.43
2019-04-01T20:41:50.910Z,7.67
2019-04-01T20:44:28.401Z,7.43
2019-04-01T20:47:01.581Z,7.13
2019-04-01T20:49:38.760Z,7.07
2019-04-01T20:52:10.350Z,7.50
2019-04-01T20:54:45.535Z,6.87
2019-04-01T20:57:17.619Z,7.87
2019-04-01T20:59:49.705Z,8.53
2019-04-01T21:02:25.659Z,6.47
2019-04-01T21:04:59.727Z,6.80
2019-04-01T21:07:34.468Z,6.77
2019-04-01T21:10:10.263Z,5.80
2019-04-01T21:12:45.819Z,5.53
2019-04-01T21:15:21.664Z,6.03
2019-04-01T21:17:58.849Z,6.47
2019-04-01T21:20:34.385Z,5.33
2019-04-01T21:23:08.773Z,5.07
2019-04-01T21:25:46.399Z,4.87
2019-04-01T21:28:19.201Z,5.10
2019-04-01T21:30:53.523Z,5.90
2019-04-01T21:33:24.405Z,5.80
2019-04-01T21:36:06.804Z,4.93
2019-04-01T21:38:40.373Z,5.20
2019-04-01T21:41:25.890Z,5.73
2019-04-01T21:43:57.379Z,5.37
2019-04-01T21:46:33.401Z,5.53
2019-04-01T21:49:05.490Z,5.80
2019-04-01T21:51:40.468Z,5.10
2019-04-01T21:54:12.827Z,5.30
2019-04-01T21:56:47.334Z,6.33
2019-04-01T21:59:21.963Z,4.87
2019-04-01T22:01:54.047Z,5.60
2019-04-01T22:04:37.238Z,4.83
2019-04-01T22:07:22.432Z,5.27
2019-04-01T22:10:00.091Z,5.03
2019-04-01T22:12:37.501Z,5.33
2019-04-01T22:15:08.976Z,4.83
2019-04-01T22:17:46.113Z,4.60
2019-04-01T22:20:17.662Z,4.47
2019-04-01T22:22:49.114Z,4.83
2019-04-01T22:25:20.811Z,5.20
2019-04-01T22:27:52.404Z,5.83
2019-04-01T22:30:27.510Z,4.63
2019-04-01T22:32:58.971Z,5.33
2019-04-01T22:35:38.670Z,4.40
2019-04-01T22:38:03.884Z,4.83
2019-04-01T22:40:35.968Z,4.93
2019-04-01T22:43:10.216Z,4.43
2019-04-01T22:45:42.523Z,4.93
2019-04-01T22:48:14.215Z,4.60
2019-04-01T22:50:45.967Z,4.80
2019-04-01T22:53:17.425Z,4.60
2019-04-01T22:55:49.657Z,3.63
2019-04-01T22:58:22.052Z,4.53
2019-04-01T23:00:53.874Z,5.27
2019-04-01T23:03:25.253Z,4.30
2019-04-01T23:05:58.182Z,5.10
2019-04-01T23:08:31.219Z,5.67
2019-04-01T23:11:03.017Z,6.10
2019-04-01T23:13:34.588Z,5.00
2019-04-01T23:16:06.086Z,5.47
2019-04-01T23:18:37.955Z,5.50
2019-04-01T23:21:09.086Z,5.37
2019-04-01T23:23:40.191Z,4.50
2019-04-01T23:26:11.693Z,4.47
2019-04-01T23:28:42.686Z,5.93
2019-04-01T23:31:13.949Z,4.23
2019-04-01T23:33:47.721Z,4.57
2019-04-01T23:36:18.970Z,4.57
2019-04-01T23:38:50.038Z,4.50
2019-04-01T23:41:21.232Z,4.77
2019-04-01T23:43:55.837Z,4.43
2019-04-01T23:46:27.163Z,4.17
2019-04-01T23:48:58.559Z,4.17
2019-04-01T23:51:31.212Z,4.40
2019-04-01T23:54:04.839Z,4.93
2019-04-01T23:56:36.272Z,4.37
2019-04-01T23:59:07.817Z,5.27
